ESSBESOW

Guest
Details From ESSB - BROMMA
To ESOW - Vasteras
Flight Number -
Tags generated
Created
Modified
Stats Distance 42 nm / 78 km
Max Altitude 100 ft / 30 m
Waypoints 3
Social Downloads 4
Likes 0
Share VATSIM

Download

Looking for another format? Having issues loading an existing format? Contact us
Advertisement - Login to hide

Notes

Basic altitude profile: - Ascent Rate: 2500ft/min - Ascent Speed: 250kts - Cruise Altitude: 10000ft - Cruise Speed: 420kts - Descent Rate: 1500ft/min - Descent Speed: 250kts Options: - Use NATs: yes - Use PACOTS: yes - Use low airways: yes - Use high airways: yes

Route

ESSB ARS ESOW

ID Type Via Altitude Latitude Longitude Leg Dist Tot Dist Heading (true) Name
O ESSB APT - 0 ft / 0 m 59.35439˚ 17.94160˚ - 0 nm - BROMMA
ARS VOR - 100 ft / 30 m 59.58619˚ 16.65039˚ 41 nm 41 nm 290° / 289° AROS VOR-DME
O ESOW APT - 0 ft / 0 m 59.58983˚ 16.63386˚ 0 nm 42 nm 293° / 293° Vasteras

Altitude Profile

Advertisement - Login to hide

ESSB

Details ICAO ESSB (BMA)
Name BROMMA
Region Sweden
Timezone Europe/Stockholm (UTC+1.0)
Stats Elevation 47 ft / 14 m (AMSL)
Location 59.354389° 17.941604°
Runways 1
Magnetic Variation 6.052° E

METAR

ESSB 181620Z 23006KT 7000 -SN OVC006 00/00 Q1020 R30/690166

Decode

TAF

Not found

Departure Runways

ID Width Length Bearing (true) Bearing (mag) Surface Threshold Offset Overrun Length
12 148 ft / 45 m 6,201 ft / 1,890 m 125.06° 119.01° Asphalt 381 ft / 116 m 0 ft / 0 m
30 148 ft / 45 m 6,201 ft / 1,890 m 305.09° 299.04° Asphalt 361 ft / 110 m 0 ft / 0 m

ESOW

Details ICAO ESOW (VST)
Name Vasteras
Region Sweden
Timezone Europe/Stockholm (UTC+1.0)
Stats Elevation 21 ft / 6 m (AMSL)
Location 59.589829° 16.633862°
Runways 1
Magnetic Variation 5.581° E

METAR

ESOW 181620Z 23006KT 9999 OVC007 02/00 Q1020 R19/710164

Decode

TAF

Not found

Destination Runways

ID Width Length Bearing (true) Bearing (mag) Surface Threshold Offset Overrun Length
01 151 ft / 46 m 8,454 ft / 2,577 m 11.62° 6.04° Asphalt 1,309 ft / 399 m 0 ft / 0 m
19 151 ft / 46 m 8,454 ft / 2,577 m 191.63° 186.05° Asphalt 0 ft / 0 m 0 ft / 0 m

Approach Navaids

Runway Type Ident Frequency Range Bearing (true) Bearing (mag) Slope Elevation
19 Localiser SCD 108.30 MHz 18 nm / 33 km 191.65° 186.07° - 21 ft / 6 m (AMSL)
19 Glidescope SCD 108.30 MHz 10 nm / 19 km 191.63° 186.05° 3.25° 21 ft / 6 m (AMSL)
19 DME SCD 108.30 MHz 18 nm / 33 km - - - 38 ft / 12 m (AMSL)

Popular Alternatives